Terminal Aerodrome Forecast
Issued by NWS

Home | Current Version | Previous Version | Text Only | Print | Product List | Glossary On
Versions: 1 2 3 4 5 6 7 8 9 10 11 12 13 14
000
FTUS42 TJSJ 262331
TAFISX
TAF
TISX 262331Z 2700/2724 08010KT P6SM SCT021 SCT027 BKN080
     FM271300 11015G20KT P6SM SCT030
     FM272130 07009KT P6SM FEW035=

USA.gov is the U.S. government's official web portal to all federal, state and local government web resources and services.